createdAt,value
2022-10-13T00:01:09.479Z,52.42
2022-10-13T00:03:39.614Z,53.63
2022-10-13T00:06:10.837Z,52.40
2022-10-13T00:08:39.129Z,55.20
2022-10-13T00:11:12.582Z,58.38
2022-10-13T00:13:40.474Z,49.65
2022-10-13T00:16:08.899Z,52.50
2022-10-13T00:18:36.880Z,51.92
2022-10-13T00:21:16.047Z,52.08
2022-10-13T00:23:46.000Z,43.28
2022-10-13T00:26:21.408Z,51.88
2022-10-13T00:28:52.490Z,51.70
2022-10-13T00:31:30.914Z,47.17
2022-10-13T00:33:59.958Z,51.33
2022-10-13T00:36:28.379Z,47.72
2022-10-13T00:38:57.099Z,46.78
2022-10-13T00:41:24.609Z,48.50
2022-10-13T00:43:58.219Z,52.92
2022-10-13T00:46:31.487Z,50.10
2022-10-13T00:49:05.556Z,53.78
2022-10-13T00:54:02.210Z,52.92
2022-10-13T00:56:29.709Z,54.65
2022-10-13T00:58:57.556Z,53.35
2022-10-13T01:01:25.318Z,61.50
2022-10-13T01:03:53.001Z,45.63
2022-10-13T01:06:23.702Z,57.10
2022-10-13T01:08:51.994Z,59.53
2022-10-13T01:11:37.820Z,44.40
2022-10-13T01:14:23.956Z,46.63
2022-10-13T01:17:00.170Z,45.35
2022-10-13T01:20:05.993Z,51.10
2022-10-13T01:22:47.093Z,48.03
2022-10-13T01:25:17.599Z,46.33
2022-10-13T01:28:14.449Z,47.40
2022-10-13T01:30:47.720Z,53.03
2022-10-13T01:33:21.677Z,52.17
2022-10-13T01:35:55.179Z,49.78
2022-10-13T01:38:37.074Z,49.38
2022-10-13T01:41:21.119Z,51.15
2022-10-13T01:43:52.698Z,45.38
2022-10-13T01:46:39.214Z,56.30
2022-10-13T01:49:12.387Z,53.20
2022-10-13T01:51:41.562Z,51.20
2022-10-13T01:54:09.324Z,48.25
2022-10-13T01:56:36.629Z,51.22
2022-10-13T01:59:13.422Z,53.17
2022-10-13T02:02:14.499Z,57.88
2022-10-13T02:05:03.908Z,55.50
2022-10-13T02:07:38.599Z,45.13
2022-10-13T02:10:11.348Z,49.78
2022-10-13T02:13:01.709Z,49.70
2022-10-13T02:15:33.420Z,51.60
2022-10-13T02:18:02.190Z,54.85
2022-10-13T02:20:29.885Z,50.05
2022-10-13T02:23:01.252Z,61.28
2022-10-13T02:25:29.420Z,55.95
2022-10-13T02:28:01.274Z,57.55
2022-10-13T02:30:33.463Z,55.13
2022-10-13T02:33:02.163Z,54.58
2022-10-13T02:35:31.219Z,62.15
2022-10-13T02:38:02.546Z,61.22
2022-10-13T02:40:30.233Z,58.50
2022-10-13T02:42:57.669Z,57.97
2022-10-13T02:45:25.291Z,63.28
2022-10-13T02:47:56.574Z,59.05
2022-10-13T02:50:23.983Z,58.38
2022-10-13T02:52:51.443Z,59.40
2022-10-13T02:55:19.041Z,64.63
2022-10-13T02:57:48.513Z,59.00
2022-10-13T03:00:16.808Z,58.05
2022-10-13T03:02:44.504Z,56.67
2022-10-13T03:05:11.828Z,64.68
2022-10-13T03:07:39.174Z,66.43
2022-10-13T03:10:06.842Z,65.95
2022-10-13T03:12:34.041Z,62.05
2022-10-13T03:15:01.367Z,61.75
2022-10-13T03:17:29.059Z,53.30
2022-10-13T03:19:56.360Z,64.57
2022-10-13T03:22:23.735Z,57.63
2022-10-13T03:24:52.713Z,74.22
2022-10-13T03:27:21.042Z,70.70
2022-10-13T03:29:48.651Z,72.88
2022-10-13T03:32:17.415Z,73.30
2022-10-13T03:34:44.769Z,63.67
2022-10-13T03:37:12.053Z,64.65
2022-10-13T03:39:44.089Z,63.67
2022-10-13T03:42:13.271Z,64.45
2022-10-13T03:44:41.310Z,69.90
2022-10-13T03:47:09.325Z,66.85
2022-10-13T03:49:38.389Z,71.72
2022-10-13T03:52:06.334Z,70.00
2022-10-13T03:54:33.889Z,64.05
2022-10-13T03:57:03.063Z,67.93
2022-10-13T03:59:35.696Z,64.40
2022-10-13T04:02:04.652Z,62.80
2022-10-13T04:04:32.115Z,68.63
2022-10-13T04:06:59.493Z,72.95
2022-10-13T04:09:27.524Z,79.38
2022-10-13T04:11:54.829Z,66.72
2022-10-13T04:14:22.253Z,73.00
2022-10-13T04:16:49.801Z,72.13
2022-10-13T04:19:17.233Z,71.53
2022-10-13T04:21:44.805Z,71.03
2022-10-13T04:24:13.652Z,69.75
2022-10-13T04:26:41.488Z,80.63
2022-10-13T04:29:10.935Z,82.10
2022-10-13T04:31:40.550Z,76.60
2022-10-13T04:34:08.541Z,74.50
2022-10-13T04:36:35.900Z,72.95
2022-10-13T04:39:04.306Z,78.50
2022-10-13T04:41:33.591Z,82.63
2022-10-13T04:44:02.538Z,89.82
2022-10-13T04:46:31.100Z,109.75
2022-10-13T04:48:58.631Z,82.80
2022-10-13T04:51:33.231Z,82.20
2022-10-13T04:54:02.434Z,80.50
2022-10-13T04:56:30.128Z,79.75
2022-10-13T04:59:05.877Z,82.25
2022-10-13T05:01:34.412Z,80.97
2022-10-13T05:04:03.949Z,88.07
2022-10-13T05:06:53.330Z,86.50
2022-10-13T05:09:26.364Z,89.93
2022-10-13T05:11:55.430Z,85.72
2022-10-13T05:14:22.956Z,89.15
2022-10-13T05:16:50.319Z,90.80
2022-10-13T05:19:17.926Z,87.90
2022-10-13T05:21:45.378Z,99.45
2022-10-13T05:24:13.956Z,100.72
2022-10-13T05:26:41.779Z,87.65
2022-10-13T05:29:09.234Z,88.20
2022-10-13T05:31:36.987Z,90.30
2022-10-13T05:34:04.505Z,91.93
2022-10-13T05:36:34.535Z,89.38
2022-10-13T05:39:04.804Z,90.78
2022-10-13T05:41:33.530Z,96.22
2022-10-13T05:44:07.784Z,90.30
2022-10-13T05:46:37.582Z,100.07
2022-10-13T05:49:05.336Z,102.82
2022-10-13T05:51:35.597Z,101.82
2022-10-13T05:54:09.224Z,107.53
2022-10-13T05:56:40.451Z,90.40
2022-10-13T05:59:10.094Z,87.47
2022-10-13T06:01:40.399Z,84.03
2022-10-13T06:04:13.938Z,69.35
2022-10-13T06:06:42.258Z,77.63
2022-10-13T06:09:10.373Z,70.68
2022-10-13T06:11:38.009Z,72.15
2022-10-13T06:14:05.754Z,71.13
2022-10-13T06:16:35.327Z,71.07
2022-10-13T06:19:03.851Z,74.70
2022-10-13T06:21:31.629Z,76.38
2022-10-13T06:23:58.815Z,74.85
2022-10-13T06:26:26.168Z,66.95
2022-10-13T06:28:59.129Z,80.70
2022-10-13T06:31:28.411Z,73.72
2022-10-13T06:33:56.110Z,69.15
2022-10-13T06:36:23.584Z,80.05
2022-10-13T06:38:51.297Z,73.05
2022-10-13T06:41:21.740Z,65.07
2022-10-13T06:43:49.712Z,68.70
2022-10-13T06:46:17.913Z,66.55
2022-10-13T06:48:45.972Z,67.50
2022-10-13T06:51:13.451Z,71.40
2022-10-13T06:53:41.620Z,70.93
2022-10-13T06:56:09.505Z,76.32
2022-10-13T06:58:38.361Z,78.78
2022-10-13T07:01:06.405Z,77.20
2022-10-13T07:03:34.056Z,61.67
2022-10-13T07:06:06.091Z,71.93
2022-10-13T07:08:34.671Z,64.30
2022-10-13T07:11:15.385Z,75.68
2022-10-13T07:13:46.485Z,57.70
2022-10-13T07:16:16.104Z,56.33
2022-10-13T07:18:43.853Z,59.58
2022-10-13T07:21:11.601Z,49.33
2022-10-13T07:23:39.061Z,41.42
2022-10-13T07:26:11.241Z,51.47
2022-10-13T07:28:39.381Z,50.05
2022-10-13T07:31:12.027Z,42.75
2022-10-13T07:33:41.049Z,40.53
2022-10-13T07:36:09.171Z,38.63
2022-10-13T07:38:36.909Z,39.75
2022-10-13T07:41:05.810Z,35.92
2022-10-13T07:43:34.004Z,42.95
2022-10-13T07:46:06.733Z,41.33
2022-10-13T07:48:35.207Z,33.13
2022-10-13T07:51:07.552Z,36.17
2022-10-13T07:53:35.565Z,37.03
2022-10-13T07:56:05.498Z,31.63
2022-10-13T07:58:33.727Z,36.08
2022-10-13T08:01:02.427Z,36.60
2022-10-13T08:03:30.731Z,34.50
2022-10-13T08:06:00.049Z,29.10
2022-10-13T08:08:28.043Z,38.53
2022-10-13T08:10:55.937Z,30.33
2022-10-13T08:13:24.026Z,36.65
2022-10-13T08:15:51.884Z,36.20
2022-10-13T08:18:19.268Z,23.95
2022-10-13T08:20:46.951Z,25.42
2022-10-13T08:23:14.776Z,36.45
2022-10-13T08:25:49.350Z,32.20
2022-10-13T08:28:26.156Z,24.65
2022-10-13T08:30:55.657Z,29.25
2022-10-13T08:33:23.229Z,18.45
2022-10-13T08:35:51.236Z,22.08
2022-10-13T08:38:20.054Z,18.27
2022-10-13T08:40:48.953Z,17.75
2022-10-13T08:43:19.732Z,20.98
2022-10-13T08:45:50.207Z,22.05
2022-10-13T08:48:21.587Z,16.20
2022-10-13T08:50:54.510Z,16.33
2022-10-13T08:53:54.386Z,19.40
2022-10-13T08:56:40.076Z,18.05
2022-10-13T08:59:11.251Z,19.13
2022-10-13T09:01:38.723Z,22.15
2022-10-13T09:04:33.422Z,21.67
2022-10-13T09:07:09.963Z,19.70
2022-10-13T09:09:38.311Z,16.13
2022-10-13T09:12:07.033Z,22.42
2022-10-13T09:14:36.706Z,19.23
2022-10-13T09:17:19.740Z,16.85
2022-10-13T09:20:06.176Z,27.60
2022-10-13T09:22:38.637Z,15.00
2022-10-13T09:25:10.297Z,17.45
2022-10-13T09:27:58.254Z,17.73
2022-10-13T09:30:40.441Z,34.13
2022-10-13T09:33:14.283Z,20.70
2022-10-13T09:35:50.527Z,13.95
2022-10-13T09:38:22.664Z,17.48
2022-10-13T09:41:17.587Z,15.23
2022-10-13T09:43:48.275Z,16.25
2022-10-13T09:46:25.484Z,16.88
2022-10-13T09:48:56.036Z,16.27
2022-10-13T09:51:42.864Z,14.45
2022-10-13T09:54:33.719Z,19.00
2022-10-13T09:57:06.317Z,16.17
2022-10-13T09:59:37.545Z,15.40
2022-10-13T10:02:21.340Z,15.55
2022-10-13T10:04:52.639Z,15.88
2022-10-13T10:07:22.901Z,21.77
2022-10-13T10:09:54.624Z,17.73
2022-10-13T10:12:27.770Z,21.10
2022-10-13T10:14:55.953Z,16.15
2022-10-13T10:17:41.794Z,11.75
2022-10-13T10:20:35.781Z,11.82
2022-10-13T10:25:40.670Z,13.32
2022-10-13T10:28:45.475Z,12.32
2022-10-13T10:31:47.524Z,16.75
2022-10-13T10:34:33.472Z,12.48
2022-10-13T10:37:25.854Z,15.98
2022-10-13T10:40:35.290Z,13.27
2022-10-13T10:43:32.624Z,15.05
2022-10-13T10:46:01.087Z,9.40
2022-10-13T10:48:39.317Z,13.23
2022-10-13T10:51:08.850Z,14.00
2022-10-13T10:53:39.573Z,10.13
2022-10-13T10:56:35.901Z,12.55
2022-10-13T10:59:26.388Z,13.63
2022-10-13T11:02:16.100Z,9.52
2022-10-13T11:04:46.463Z,9.32
2022-10-13T11:07:25.718Z,9.07
2022-10-13T11:09:53.353Z,10.93
2022-10-13T11:12:21.502Z,10.77
2022-10-13T11:14:55.101Z,13.10
2022-10-13T11:17:41.613Z,9.32
2022-10-13T11:20:21.093Z,11.27
2022-10-13T11:23:14.873Z,8.35
2022-10-13T11:25:44.652Z,8.60
2022-10-13T11:28:21.593Z,11.35
2022-10-13T11:30:55.480Z,10.68
2022-10-13T11:33:41.969Z,8.50
2022-10-13T11:36:28.207Z,14.10
2022-10-13T11:42:21.454Z,6.78
2022-10-13T11:44:58.099Z,10.90
2022-10-13T11:47:53.985Z,13.75
2022-10-13T11:50:59.189Z,7.13
2022-10-13T11:53:28.513Z,12.70
2022-10-13T11:55:58.381Z,8.95
2022-10-13T11:58:30.409Z,11.05
2022-10-13T12:01:06.501Z,8.13
2022-10-13T12:03:36.301Z,13.48
2022-10-13T12:06:33.315Z,18.38
2022-10-13T12:09:03.676Z,10.40
2022-10-13T12:11:34.667Z,10.13
2022-10-13T12:14:03.556Z,23.50
2022-10-13T12:16:31.028Z,12.02
2022-10-13T12:19:21.981Z,9.80
2022-10-13T12:21:53.961Z,13.73
2022-10-13T12:24:23.887Z,16.02
2022-10-13T12:26:52.203Z,11.55
2022-10-13T12:29:24.347Z,8.95
2022-10-13T12:31:52.264Z,11.80
2022-10-13T12:34:25.202Z,8.45
2022-10-13T12:37:02.991Z,9.75
2022-10-13T12:39:32.606Z,14.30
2022-10-13T12:42:02.768Z,9.77
2022-10-13T12:44:32.157Z,13.30
2022-10-13T12:47:02.272Z,10.23
2022-10-13T12:49:32.461Z,12.57
2022-10-13T12:52:24.167Z,14.02
2022-10-13T12:54:57.973Z,12.98
2022-10-13T12:57:40.486Z,7.60
2022-10-13T13:00:20.692Z,14.82
2022-10-13T13:02:57.060Z,7.25
2022-10-13T13:05:31.800Z,9.07
2022-10-13T13:08:07.052Z,8.88
2022-10-13T13:10:36.945Z,11.00
2022-10-13T13:13:22.964Z,8.23
2022-10-13T13:15:51.142Z,9.55
2022-10-13T13:18:32.244Z,11.00
2022-10-13T13:21:02.097Z,10.57
2022-10-13T13:23:34.281Z,9.95
2022-10-13T13:26:08.164Z,8.20
2022-10-13T13:28:35.615Z,10.25
2022-10-13T13:31:03.828Z,9.70
2022-10-13T13:33:31.689Z,13.73
2022-10-13T13:35:59.215Z,11.85
2022-10-13T13:38:26.824Z,8.75
2022-10-13T13:40:54.473Z,11.95
2022-10-13T13:43:21.878Z,11.60
2022-10-13T13:45:49.475Z,12.38
2022-10-13T13:48:17.240Z,8.90
2022-10-13T13:50:44.681Z,7.45
2022-10-13T13:53:12.288Z,15.30
2022-10-13T13:55:39.752Z,7.47
2022-10-13T13:58:09.997Z,13.20
2022-10-13T14:00:38.197Z,9.88
2022-10-13T14:03:05.519Z,8.30
2022-10-13T14:05:33.184Z,15.10
2022-10-13T14:08:01.283Z,14.38
2022-10-13T14:10:29.621Z,16.67
2022-10-13T14:12:57.196Z,16.08
2022-10-13T14:15:28.717Z,10.20
2022-10-13T14:17:57.394Z,19.23
2022-10-13T14:20:24.804Z,17.15
2022-10-13T14:22:52.490Z,11.05
2022-10-13T14:25:20.062Z,9.93
2022-10-13T14:27:47.511Z,10.40
2022-10-13T14:30:15.273Z,15.00
2022-10-13T14:32:42.906Z,10.52
2022-10-13T14:35:10.538Z,54.63
2022-10-13T14:37:38.503Z,13.48
2022-10-13T14:40:06.533Z,13.40
2022-10-13T14:42:34.289Z,13.63
2022-10-13T14:45:06.769Z,15.10
2022-10-13T14:47:34.172Z,14.18
2022-10-13T14:50:02.059Z,12.68
2022-10-13T14:52:29.616Z,9.73
2022-10-13T14:54:57.269Z,11.57
2022-10-13T14:57:24.694Z,14.98
2022-10-13T14:59:52.454Z,11.75
2022-10-13T15:02:19.793Z,18.05
2022-10-13T15:04:54.284Z,12.18
2022-10-13T15:07:22.046Z,13.30
2022-10-13T15:10:04.279Z,11.73
2022-10-13T15:12:33.274Z,10.80
2022-10-13T15:15:00.948Z,11.93
2022-10-13T15:17:30.978Z,13.30
2022-10-13T15:19:58.943Z,10.35
2022-10-13T15:22:26.647Z,12.07
2022-10-13T15:24:54.101Z,16.67
2022-10-13T15:27:21.833Z,13.65
2022-10-13T15:29:49.629Z,12.63
2022-10-13T15:32:19.335Z,11.55
2022-10-13T15:34:55.270Z,12.85
2022-10-13T15:37:22.603Z,14.48
2022-10-13T15:39:56.063Z,11.35
2022-10-13T15:42:25.124Z,13.63
2022-10-13T15:47:40.332Z,14.68
2022-10-13T15:50:09.190Z,9.85
2022-10-13T15:52:40.526Z,16.02
2022-10-13T15:55:09.892Z,12.10
2022-10-13T15:57:38.420Z,16.85
2022-10-13T16:00:07.408Z,17.70
2022-10-13T16:02:41.056Z,17.45
2022-10-13T16:05:10.925Z,17.23
2022-10-13T16:07:41.940Z,16.35
2022-10-13T16:10:11.089Z,19.42
2022-10-13T16:12:39.932Z,29.85
2022-10-13T16:15:08.799Z,42.25
2022-10-13T16:17:36.512Z,31.80
2022-10-13T16:20:05.020Z,21.75
2022-10-13T16:22:32.999Z,16.17
2022-10-13T16:25:01.035Z,22.40
2022-10-13T16:27:28.793Z,21.77
2022-10-13T16:29:56.191Z,14.85
2022-10-13T16:32:23.902Z,13.82
2022-10-13T16:34:51.395Z,16.65
2022-10-13T16:37:20.632Z,12.60
2022-10-13T16:39:51.724Z,17.38
2022-10-13T16:42:20.113Z,27.55
2022-10-13T16:44:47.528Z,27.20
2022-10-13T16:47:18.495Z,43.08
2022-10-13T16:49:47.258Z,37.28
2022-10-13T16:52:15.571Z,28.73
2022-10-13T16:54:44.598Z,46.17
2022-10-13T16:57:12.542Z,36.67
2022-10-13T16:59:39.919Z,24.02
2022-10-13T17:02:07.184Z,27.92
2022-10-13T17:04:38.196Z,35.08
2022-10-13T17:07:05.557Z,27.50
2022-10-13T17:09:33.114Z,30.20
2022-10-13T17:12:00.901Z,28.67
2022-10-13T17:14:28.746Z,25.75
2022-10-13T17:16:57.978Z,21.88
2022-10-13T17:19:26.652Z,34.05
2022-10-13T17:21:54.309Z,35.97
2022-10-13T17:24:22.097Z,31.10
2022-10-13T17:26:49.833Z,27.38
2022-10-13T17:29:18.056Z,34.53
2022-10-13T17:31:45.967Z,34.45
2022-10-13T17:34:13.804Z,37.85
2022-10-13T17:36:41.556Z,36.25
2022-10-13T17:39:10.373Z,47.85
2022-10-13T17:41:40.648Z,37.60
2022-10-13T17:44:08.427Z,39.85
2022-10-13T17:46:38.425Z,33.90
2022-10-13T17:49:11.468Z,36.47
2022-10-13T17:51:40.446Z,40.05
2022-10-13T17:54:12.921Z,40.63
2022-10-13T17:56:40.412Z,37.50
2022-10-13T17:59:10.054Z,36.42
2022-10-13T18:01:40.101Z,45.30
2022-10-13T18:04:11.780Z,44.28
2022-10-13T18:06:40.750Z,45.78
2022-10-13T18:09:11.477Z,66.00
2022-10-13T18:11:40.267Z,55.97
2022-10-13T18:14:08.440Z,42.75
2022-10-13T18:16:42.574Z,41.17
2022-10-13T18:19:13.371Z,41.30
2022-10-13T18:21:41.031Z,43.08
2022-10-13T18:24:09.666Z,64.53
2022-10-13T18:26:37.337Z,55.50
2022-10-13T18:29:07.069Z,69.68
2022-10-13T18:31:37.068Z,60.97
2022-10-13T18:34:07.500Z,40.55
2022-10-13T18:36:49.369Z,43.80
2022-10-13T18:39:26.030Z,40.63
2022-10-13T18:41:55.689Z,52.17
2022-10-13T18:44:29.545Z,54.60
2022-10-13T18:46:57.337Z,44.50
2022-10-13T18:49:31.359Z,45.55
2022-10-13T18:52:00.962Z,67.10
2022-10-13T18:54:29.037Z,50.05
2022-10-13T18:56:57.506Z,62.80
2022-10-13T18:59:25.377Z,63.03
2022-10-13T19:01:52.793Z,50.50
2022-10-13T19:04:22.595Z,61.03
2022-10-13T19:06:51.378Z,53.58
2022-10-13T19:09:19.658Z,56.17
2022-10-13T19:11:47.674Z,47.40
2022-10-13T19:14:17.613Z,49.35
2022-10-13T19:16:45.353Z,53.05
2022-10-13T19:19:13.827Z,46.42
2022-10-13T19:21:42.160Z,49.15
2022-10-13T19:24:10.963Z,48.97
2022-10-13T19:26:39.106Z,51.38
2022-10-13T19:29:11.947Z,42.25
2022-10-13T19:31:42.316Z,46.85
2022-10-13T19:34:11.908Z,43.13
2022-10-13T19:36:45.595Z,39.65
2022-10-13T19:39:24.971Z,47.22
2022-10-13T19:41:54.458Z,49.22
2022-10-13T19:44:23.974Z,52.03
2022-10-13T19:46:52.678Z,48.78
2022-10-13T19:49:22.793Z,40.92
2022-10-13T19:51:53.708Z,54.50
2022-10-13T19:54:22.861Z,45.67
2022-10-13T19:56:51.351Z,44.92
2022-10-13T19:59:20.732Z,35.53
2022-10-13T20:01:49.404Z,43.28
2022-10-13T20:04:20.448Z,43.17
2022-10-13T20:06:50.329Z,47.20
2022-10-13T20:09:19.463Z,50.83
2022-10-13T20:11:50.323Z,82.35
2022-10-13T20:14:19.802Z,99.05
2022-10-13T20:16:48.500Z,47.25
2022-10-13T20:19:19.148Z,54.88
2022-10-13T20:21:48.693Z,47.47
2022-10-13T20:24:16.734Z,46.42
2022-10-13T20:26:44.904Z,47.10
2022-10-13T20:29:13.424Z,45.30
2022-10-13T20:31:42.241Z,39.83
2022-10-13T20:34:10.710Z,39.45
2022-10-13T20:36:39.568Z,42.75
2022-10-13T20:39:09.289Z,52.35
2022-10-13T20:41:37.040Z,51.67
2022-10-13T20:44:05.831Z,48.17
2022-10-13T20:46:34.468Z,43.13
2022-10-13T20:49:10.972Z,43.08
2022-10-13T20:51:40.489Z,37.38
2022-10-13T20:54:11.251Z,41.10
2022-10-13T20:56:39.978Z,41.20
2022-10-13T20:59:11.093Z,47.08
2022-10-13T21:01:39.165Z,49.95
2022-10-13T21:04:08.681Z,46.53
2022-10-13T21:06:38.325Z,42.25
2022-10-13T21:09:07.098Z,46.45
2022-10-13T21:11:37.032Z,48.05
2022-10-13T21:14:07.243Z,41.00
2022-10-13T21:16:40.103Z,49.63
2022-10-13T21:19:10.208Z,45.03
2022-10-13T21:21:39.291Z,47.20
2022-10-13T21:24:09.512Z,46.30
2022-10-13T21:26:38.172Z,46.65
2022-10-13T21:29:07.194Z,54.00
2022-10-13T21:31:35.900Z,54.20
2022-10-13T21:34:04.464Z,52.88
2022-10-13T21:36:34.227Z,39.45
2022-10-13T21:39:04.899Z,43.00
2022-10-13T21:41:35.201Z,47.15
2022-10-13T21:44:03.976Z,45.80
2022-10-13T21:46:34.634Z,49.47
2022-10-13T21:49:05.489Z,41.50
2022-10-13T21:51:36.068Z,46.70
2022-10-13T21:54:12.472Z,48.42
2022-10-13T21:59:10.961Z,45.80
2022-10-13T22:01:39.311Z,48.17
2022-10-13T22:04:13.798Z,48.15
2022-10-13T22:06:41.847Z,45.35
2022-10-13T22:09:10.503Z,49.83
2022-10-13T22:11:39.236Z,50.38
2022-10-13T22:14:13.533Z,45.50
2022-10-13T22:16:49.215Z,46.65
2022-10-13T22:19:18.874Z,46.35
2022-10-13T22:21:48.792Z,51.67
2022-10-13T22:24:20.249Z,48.58
2022-10-13T22:26:49.975Z,44.30
2022-10-13T22:29:20.671Z,47.45
2022-10-13T22:31:50.426Z,52.60
2022-10-13T22:34:18.810Z,54.58
2022-10-13T22:36:47.186Z,53.70
2022-10-13T22:39:15.904Z,52.65
2022-10-13T22:41:44.010Z,53.45
2022-10-13T22:44:12.517Z,52.95
2022-10-13T22:46:41.233Z,46.80
2022-10-13T22:49:13.891Z,51.53
2022-10-13T22:51:42.262Z,51.08
2022-10-13T22:54:09.931Z,57.67
2022-10-13T22:56:37.943Z,56.78
2022-10-13T22:59:08.493Z,54.20
2022-10-13T23:01:37.194Z,54.20
2022-10-13T23:04:05.729Z,56.97
2022-10-13T23:06:35.140Z,59.72
2022-10-13T23:09:05.200Z,57.00
2022-10-13T23:11:34.463Z,57.80
2022-10-13T23:14:05.025Z,49.83
2022-10-13T23:16:34.753Z,58.85
2022-10-13T23:19:03.729Z,51.10
2022-10-13T23:21:33.085Z,59.40
2022-10-13T23:24:04.080Z,55.08
2022-10-13T23:26:33.743Z,53.88
2022-10-13T23:29:04.414Z,50.65
2022-10-13T23:31:33.093Z,61.67
2022-10-13T23:34:00.907Z,54.63
2022-10-13T23:36:31.108Z,65.45
2022-10-13T23:39:01.940Z,51.25
2022-10-13T23:44:00.535Z,56.60
2022-10-13T23:46:29.719Z,57.83
2022-10-13T23:48:57.558Z,53.42
2022-10-13T23:51:26.511Z,52.70
2022-10-13T23:53:54.953Z,63.28
2022-10-13T23:56:23.570Z,58.17
2022-10-13T23:58:51.432Z,56.63
